Pagrindinis puslapis
METAR-TAF:

METAR-TAF

Oro uostai :

Tabarka, Tunisas

platuma: 36-57N, ilguma: 008-45E, Aukštis: 20 m

Dabartinis oras

Ataskaita buvo paskelbta 37 minutes, ne 08:00 UTC
Vėjas 6 kt iš Rytų
Temperatūra 8°C
Drėgmė 93%
Slėgis 1023 hPa
Matomumas 10 km arba daugiau
Mažai debesys ne aukštis 2000 ft

METAR: DTKA 250800Z 08006KT 9999 FEW020 08/07 Q1023 NOSIG

Laikas: 09:37 (08:37 UTC)

Prognozė

Ataskaita buvo paskelbta 2 valandos ir 37 minutes, ne 06:00 UTC
Prognozė galioja nuo 25 metu 07 UTC su 25 metu 16 UTC
Vėjas 5 kt iš Rytų
Matomumas 10 km arba daugiau
Mažai debesys ne aukštis 2000 ft
Tikimybė 30% :
Laikinai
nuo 25 metu 07 UTC su 25 metu 08 UTC
Matomumas: 3000 m
rūkana

TAF: DTKA 250600Z 2507/2516 08005KT 9999 FEW020 PROB30 TEMPO 2507/2508 3000 BR

Orai ataskaitas ir orų prognozės (METAR, TAF).

turimą stotys yra geltonos ir raudonos taškus žemėlapyje.

Perkelti pele per norėdami pamatyti stoties vardą.

Tada spustelėkite, norėdami matyti oro stebėjimo ir prognozės.

Norėdami pakeisti žemėlapį: spustelėkite ant žalios mygtukų su juodo kryžiaus žemyn,; žalią mygtuką su brūkšneliu, jei norite nutolinti; arba žalių rodyklių gretimoms žemėlapius.


METAR-TAF: